ICE631 BIKF-KBOS
Flight info
| Callsign | ICE631 |
|---|---|
| Flight time | N/A |
| Altitude | 36000 |
| Route | DELES2A DELES DCT DOPOD DCT 61N030W 56N040W 52N050W DCT UMESI/N0466F360 DCT ALLEX DCT AJJAY OOSHN5 |
| Aircraft | B763/H-SDE3FGHIM3RWXY/LB1 |
Departure
| Time | 2026-05-04 16:18 |
|---|---|
| Airport | Keflavik International Airport (BIKF) |
Arrival
| Time | N/A |
|---|---|
| Airport | Boston Logan International Airport (KBOS) |
| Time | Latitude | Longitude | Altitude | Speed | Heading |
|---|---|---|---|---|---|
| 2026-05-04 15:36 | 63.99377 | -22.62556 | 166 ft | 0 kts | 126° |
| 2026-05-04 15:51 | 63.99379 | -22.62561 | 166 ft | 1 kts | 126° |
| 2026-05-04 15:51 | 63.99384 | -22.62578 | 166 ft | 0 kts | 129° |
| 2026-05-04 15:55 | 63.99390 | -22.62595 | 166 ft | 3 kts | 127° |
| 2026-05-04 15:55 | 63.99402 | -22.62631 | 165 ft | 3 kts | 128° |
| 2026-05-04 15:55 | 63.99415 | -22.62665 | 165 ft | 3 kts | 135° |
| 2026-05-04 15:56 | 63.99430 | -22.62691 | 165 ft | 3 kts | 157° |
| 2026-05-04 15:56 | 63.99443 | -22.62697 | 165 ft | 1 kts | 186° |
| 2026-05-04 15:56 | 63.99445 | -22.62696 | 165 ft | 5 kts | 188° |
| 2026-05-04 16:01 | 63.99440 | -22.62697 | 165 ft | 2 kts | 187° |
| 2026-05-04 16:01 | 63.99421 | -22.62703 | 165 ft | 3 kts | 193° |
| 2026-05-04 16:02 | 63.99400 | -22.62724 | 164 ft | 5 kts | 204° |
| 2026-05-04 16:02 | 63.99363 | -22.62749 | 164 ft | 7 kts | 191° |
| 2026-05-04 16:02 | 63.99280 | -22.62749 | 163 ft | 3 kts | 165° |
| 2026-05-04 16:03 | 63.99266 | -22.62734 | 163 ft | 4 kts | 149° |
| 2026-05-04 16:03 | 63.99236 | -22.62697 | 163 ft | 6 kts | 159° |
| 2026-05-04 16:03 | 63.99176 | -22.62688 | 162 ft | 11 kts | 186° |
| 2026-05-04 16:03 | 63.99099 | -22.62732 | 160 ft | 12 kts | 195° |
| 2026-05-04 16:04 | 63.99015 | -22.62788 | 158 ft | 13 kts | 197° |
| 2026-05-04 16:04 | 63.98872 | -22.62845 | 155 ft | 6 kts | 143° |
| 2026-05-04 16:04 | 63.98855 | -22.62767 | 155 ft | 7 kts | 101° |
| 2026-05-04 16:05 | 63.98854 | -22.62632 | 156 ft | 10 kts | 90° |
| 2026-05-04 16:05 | 63.98854 | -22.62454 | 158 ft | 13 kts | 90° |
| 2026-05-04 16:05 | 63.98853 | -22.61914 | 164 ft | 20 kts | 90° |
| 2026-05-04 16:06 | 63.98852 | -22.61627 | 167 ft | 16 kts | 90° |
| 2026-05-04 16:06 | 63.98855 | -22.61248 | 172 ft | 7 kts | 90° |
| 2026-05-04 16:07 | 63.98854 | -22.61068 | 173 ft | 9 kts | 92° |
| 2026-05-04 16:07 | 63.98742 | -22.60944 | 173 ft | 12 kts | 179° |
| 2026-05-04 16:08 | 63.98652 | -22.60941 | 171 ft | 14 kts | 180° |
| 2026-05-04 16:08 | 63.98302 | -22.60935 | 169 ft | 16 kts | 179° |
| 2026-05-04 16:09 | 63.98101 | -22.60951 | 168 ft | 13 kts | 180° |
| 2026-05-04 16:09 | 63.97932 | -22.60951 | 167 ft | 11 kts | 179° |
| 2026-05-04 16:10 | 63.97778 | -22.60951 | 165 ft | 11 kts | 179° |
| 2026-05-04 16:11 | 63.97416 | -22.60950 | 162 ft | 18 kts | 180° |
| 2026-05-04 16:11 | 63.97292 | -22.60950 | 161 ft | 17 kts | 179° |
| 2026-05-04 16:12 | 63.96953 | -22.60954 | 157 ft | 15 kts | 178° |
| 2026-05-04 16:12 | 63.96659 | -22.60943 | 154 ft | 13 kts | 180° |
| 2026-05-04 16:13 | 63.96541 | -22.60944 | 153 ft | 0 kts | 180° |
| 2026-05-04 16:13 | 63.96523 | -22.60942 | 153 ft | 5 kts | 176° |
| 2026-05-04 16:14 | 63.96465 | -22.60834 | 153 ft | 0 kts | 97° |
| 2026-05-04 16:16 | 63.96464 | -22.60605 | 152 ft | 6 kts | 75° |
| 2026-05-04 16:17 | 63.96534 | -22.60547 | 153 ft | 14 kts | 360° |
| 2026-05-04 16:18 | 63.98741 | -22.60537 | 566 ft | 180 kts | 357° |
| 2026-05-04 16:18 | 63.99987 | -22.60716 | 1554 ft | 174 kts | 355° |
| 2026-05-04 16:19 | 64.03949 | -22.61226 | 3209 ft | 193 kts | 345° |
| 2026-05-04 16:19 | 64.05683 | -22.65831 | 4343 ft | 217 kts | 287° |
| 2026-05-04 16:20 | 64.06337 | -22.76717 | 6503 ft | 226 kts | 275° |
| 2026-05-04 16:20 | 64.06314 | -22.83840 | 8018 ft | 226 kts | 272° |
| 2026-05-04 16:21 | 64.06289 | -22.94626 | 9782 ft | 229 kts | 274° |
| 2026-05-04 16:22 | 64.06270 | -23.02381 | 10245 ft | 258 kts | 273° |
| 2026-05-04 16:22 | 64.04206 | -23.13467 | 12026 ft | 291 kts | 217° |
| 2026-05-04 16:23 | 63.98596 | -23.19399 | 13665 ft | 302 kts | 212° |
| 2026-05-04 16:24 | 63.90808 | -23.27207 | 15579 ft | 309 kts | 214° |
| 2026-05-04 16:25 | 63.86889 | -23.31309 | 16464 ft | 311 kts | 216° |
| 2026-05-04 16:26 | 63.79201 | -23.40440 | 18119 ft | 304 kts | 230° |
| 2026-05-04 16:26 | 63.74869 | -23.50616 | 19209 ft | 297 kts | 241° |
| 2026-05-04 16:27 | 63.72321 | -23.57925 | 19874 ft | 298 kts | 242° |
| 2026-05-04 16:28 | 63.68710 | -23.69391 | 20827 ft | 296 kts | 248° |
| 2026-05-04 16:28 | 63.65424 | -23.81252 | 21726 ft | 301 kts | 247° |
| 2026-05-04 16:29 | 63.60914 | -23.97273 | 22856 ft | 305 kts | 247° |
| 2026-05-04 16:30 | 63.57472 | -24.09412 | 23626 ft | 308 kts | 247° |
| 2026-05-04 16:31 | 63.55164 | -24.17519 | 24065 ft | 311 kts | 247° |
| 2026-05-04 16:31 | 63.51640 | -24.29840 | 24639 ft | 314 kts | 247° |
| 2026-05-04 16:32 | 63.48089 | -24.42187 | 25166 ft | 317 kts | 246° |
| 2026-05-04 16:33 | 63.45690 | -24.50493 | 25503 ft | 319 kts | 246° |
| 2026-05-04 16:33 | 63.43315 | -24.58661 | 26222 ft | 307 kts | 247° |
| 2026-05-04 16:34 | 63.40971 | -24.66771 | 26332 ft | 316 kts | 246° |
| 2026-05-04 16:34 | 63.39774 | -24.70852 | 26344 ft | 321 kts | 246° |
| 2026-05-04 16:35 | 63.36060 | -24.83521 | 26646 ft | 328 kts | 246° |
| 2026-05-04 16:35 | 63.32356 | -24.96100 | 28095 ft | 319 kts | 246° |
| 2026-05-04 16:36 | 63.31145 | -25.00195 | 28713 ft | 313 kts | 246° |
| 2026-05-04 16:36 | 63.28817 | -25.08042 | 30149 ft | 294 kts | 247° |
| 2026-05-04 16:37 | 63.26572 | -25.15652 | 30310 ft | 307 kts | 246° |
| 2026-05-04 16:37 | 63.25361 | -25.19700 | 30044 ft | 317 kts | 245° |
| 2026-05-04 16:38 | 63.20559 | -25.35706 | 30285 ft | 314 kts | 246° |
| 2026-05-04 16:39 | 63.17256 | -25.46675 | 30367 ft | 330 kts | 245° |
| 2026-05-04 16:39 | 63.14651 | -25.55270 | 30408 ft | 342 kts | 245° |
| 2026-05-04 16:40 | 63.11945 | -25.64182 | 30451 ft | 355 kts | 244° |
| 2026-05-04 16:40 | 63.09138 | -25.73388 | 30478 ft | 367 kts | 244° |
| 2026-05-04 16:41 | 63.06254 | -25.82806 | 30510 ft | 378 kts | 244° |
| 2026-05-04 16:41 | 63.01732 | -25.97495 | 30543 ft | 393 kts | 243° |
| 2026-05-04 16:42 | 62.97022 | -26.12697 | 30563 ft | 407 kts | 243° |
| 2026-05-04 16:43 | 62.93785 | -26.23081 | 30574 ft | 415 kts | 243° |
| 2026-05-04 16:43 | 62.88958 | -26.39013 | 30581 ft | 420 kts | 248° |
| 2026-05-04 16:45 | 62.80475 | -26.73254 | 30595 ft | 434 kts | 247° |
| 2026-05-04 16:46 | 62.73139 | -27.02332 | 30793 ft | 439 kts | 246° |
| 2026-05-04 16:47 | 62.70168 | -27.13994 | 30897 ft | 440 kts | 246° |
| 2026-05-04 16:47 | 62.67200 | -27.25589 | 30985 ft | 441 kts | 246° |
| 2026-05-04 16:48 | 62.62684 | -27.43111 | 31129 ft | 443 kts | 246° |
| 2026-05-04 16:48 | 62.61171 | -27.48952 | 31168 ft | 443 kts | 246° |
| 2026-05-04 16:49 | 62.55078 | -27.72322 | 31333 ft | 446 kts | 245° |
| 2026-05-04 16:50 | 62.48937 | -27.95625 | 31523 ft | 447 kts | 245° |
| 2026-05-04 16:51 | 62.45904 | -28.07045 | 32317 ft | 432 kts | 245° |
| 2026-05-04 16:51 | 62.44404 | -28.12683 | 32451 ft | 432 kts | 245° |
| 2026-05-04 16:51 | 62.41396 | -28.23915 | 32670 ft | 432 kts | 244° |
| 2026-05-04 16:52 | 62.38403 | -28.35046 | 32893 ft | 432 kts | 244° |
| 2026-05-04 16:52 | 62.36890 | -28.40652 | 32996 ft | 432 kts | 244° |
| 2026-05-04 16:53 | 62.33861 | -28.51831 | 33203 ft | 432 kts | 244° |
| 2026-05-04 16:53 | 62.29304 | -28.68548 | 33516 ft | 432 kts | 244° |
| 2026-05-04 16:54 | 62.27777 | -28.74121 | 33620 ft | 432 kts | 244° |
| 2026-05-04 16:55 | 62.21655 | -28.96329 | 34033 ft | 432 kts | 243° |
| 2026-05-04 16:55 | 62.18582 | -29.07398 | 34233 ft | 432 kts | 243° |
| 2026-05-04 16:56 | 62.15514 | -29.18390 | 34389 ft | 433 kts | 243° |
| 2026-05-04 16:56 | 62.10856 | -29.34977 | 34599 ft | 434 kts | 243° |
| 2026-05-04 16:57 | 62.06173 | -29.51536 | 34802 ft | 435 kts | 242° |
| 2026-05-04 16:58 | 62.01471 | -29.68038 | 34997 ft | 436 kts | 242° |
| 2026-05-04 16:58 | 61.99889 | -29.73562 | 35067 ft | 436 kts | 242° |
| 2026-05-04 16:59 | 61.96739 | -29.84527 | 35184 ft | 436 kts | 242° |
| 2026-05-04 17:00 | 61.90372 | -30.06526 | 35587 ft | 438 kts | 241° |
| 2026-05-04 17:00 | 61.85571 | -30.22975 | 35803 ft | 439 kts | 241° |
| 2026-05-04 17:01 | 61.82339 | -30.33979 | 35945 ft | 439 kts | 241° |
| 2026-05-04 17:01 | 61.79145 | -30.44793 | 36155 ft | 422 kts | 241° |
| 2026-05-04 17:02 | 61.76037 | -30.55298 | 36261 ft | 422 kts | 241° |
| 2026-05-04 17:03 | 61.71313 | -30.71135 | 36286 ft | 428 kts | 241° |
| 2026-05-04 17:03 | 61.66520 | -30.87097 | 36288 ft | 434 kts | 240° |
| 2026-05-04 17:04 | 61.59970 | -31.08732 | 36279 ft | 442 kts | 240° |
| 2026-05-04 17:05 | 61.53386 | -31.30281 | 36276 ft | 438 kts | 240° |
| 2026-05-04 17:06 | 61.48401 | -31.46459 | 36278 ft | 441 kts | 240° |
| 2026-05-04 17:07 | 61.43968 | -31.60754 | 36274 ft | 439 kts | 240° |
| 2026-05-04 17:07 | 61.40083 | -31.73208 | 36284 ft | 441 kts | 239° |
| 2026-05-04 17:08 | 61.35045 | -31.89258 | 36278 ft | 439 kts | 239° |
| 2026-05-04 17:09 | 61.31683 | -31.99905 | 36277 ft | 441 kts | 239° |
| 2026-05-04 17:09 | 61.28321 | -32.10503 | 36274 ft | 441 kts | 239° |
| 2026-05-04 17:10 | 61.19834 | -32.37049 | 36275 ft | 442 kts | 239° |
| 2026-05-04 17:11 | 61.16421 | -32.47632 | 36271 ft | 441 kts | 239° |
| 2026-05-04 17:12 | 61.11292 | -32.63457 | 36269 ft | 441 kts | 239° |
| 2026-05-04 17:13 | 61.02703 | -32.89712 | 36270 ft | 441 kts | 238° |
| 2026-05-04 17:14 | 60.95779 | -33.10659 | 36268 ft | 442 kts | 238° |
| 2026-05-04 17:15 | 60.90572 | -33.26291 | 36268 ft | 442 kts | 238° |
| 2026-05-04 17:16 | 60.83602 | -33.47049 | 36262 ft | 442 kts | 238° |
| 2026-05-04 17:17 | 60.76582 | -33.67773 | 36259 ft | 443 kts | 238° |
| 2026-05-04 17:18 | 60.69530 | -33.88405 | 36253 ft | 442 kts | 238° |
| 2026-05-04 17:19 | 60.62435 | -34.08979 | 36249 ft | 444 kts | 237° |
| 2026-05-04 17:20 | 60.55311 | -34.29454 | 36249 ft | 444 kts | 237° |
| 2026-05-04 17:20 | 60.49956 | -34.44730 | 36242 ft | 444 kts | 237° |
| 2026-05-04 17:21 | 60.42759 | -34.65103 | 36243 ft | 445 kts | 237° |
| 2026-05-04 17:22 | 60.39167 | -34.75202 | 36241 ft | 445 kts | 237° |
| 2026-05-04 17:23 | 60.31916 | -34.95462 | 36238 ft | 445 kts | 237° |
| 2026-05-04 17:24 | 60.26458 | -35.10596 | 36238 ft | 445 kts | 237° |
| 2026-05-04 17:25 | 60.19751 | -35.29058 | 36235 ft | 447 kts | 237° |
| 2026-05-04 17:26 | 60.12381 | -35.49180 | 36220 ft | 446 kts | 237° |
| 2026-05-04 17:27 | 60.03124 | -35.74209 | 36221 ft | 448 kts | 237° |
| 2026-05-04 17:28 | 59.95653 | -35.94217 | 36224 ft | 450 kts | 237° |
| 2026-05-04 17:29 | 59.84391 | -36.24056 | 36227 ft | 452 kts | 237° |
| 2026-05-04 17:31 | 59.74901 | -36.48908 | 36223 ft | 452 kts | 237° |
| 2026-05-04 17:32 | 59.65355 | -36.73642 | 36223 ft | 453 kts | 237° |
| 2026-05-04 17:33 | 59.57634 | -36.93458 | 36229 ft | 455 kts | 237° |
| 2026-05-04 17:34 | 59.49879 | -37.13194 | 36222 ft | 456 kts | 237° |
| 2026-05-04 17:35 | 59.40121 | -37.37793 | 36229 ft | 457 kts | 237° |
| 2026-05-04 17:36 | 59.36189 | -37.47633 | 36231 ft | 459 kts | 236° |
| 2026-05-04 17:36 | 59.32241 | -37.57470 | 36228 ft | 458 kts | 236° |
| 2026-05-04 17:37 | 59.28311 | -37.67224 | 36227 ft | 458 kts | 237° |
| 2026-05-04 17:37 | 59.24343 | -37.77032 | 36228 ft | 460 kts | 236° |
| 2026-05-04 17:38 | 59.20380 | -37.86782 | 36228 ft | 460 kts | 237° |
| 2026-05-04 17:38 | 59.16393 | -37.96553 | 36226 ft | 459 kts | 237° |
| 2026-05-04 17:39 | 59.10379 | -38.11215 | 36229 ft | 462 kts | 237° |
| 2026-05-04 17:39 | 59.06360 | -38.20963 | 36224 ft | 461 kts | 237° |
| 2026-05-04 17:40 | 59.02369 | -38.30603 | 36240 ft | 461 kts | 237° |
| 2026-05-04 17:40 | 58.98322 | -38.40337 | 36237 ft | 463 kts | 236° |
| 2026-05-04 17:41 | 58.94275 | -38.50030 | 36225 ft | 462 kts | 237° |
| 2026-05-04 17:41 | 58.90223 | -38.59698 | 36231 ft | 462 kts | 237° |
| 2026-05-04 17:42 | 58.86153 | -38.69366 | 36230 ft | 464 kts | 236° |
| 2026-05-04 17:42 | 58.82100 | -38.78955 | 36230 ft | 463 kts | 236° |
| 2026-05-04 17:43 | 58.78023 | -38.88561 | 36230 ft | 462 kts | 236° |
| 2026-05-04 17:43 | 58.73932 | -38.98161 | 36234 ft | 464 kts | 236° |
| 2026-05-04 17:44 | 58.69824 | -39.07760 | 36235 ft | 463 kts | 236° |
| 2026-05-04 17:44 | 58.65727 | -39.17298 | 36229 ft | 462 kts | 236° |
| 2026-05-04 17:45 | 58.61639 | -39.26774 | 36234 ft | 464 kts | 236° |
| 2026-05-04 17:45 | 58.57516 | -39.36292 | 36231 ft | 463 kts | 236° |
| 2026-05-04 17:46 | 58.53392 | -39.45774 | 36231 ft | 462 kts | 236° |
| 2026-05-04 17:46 | 58.49261 | -39.55235 | 36234 ft | 464 kts | 236° |
| 2026-05-04 17:47 | 58.45117 | -39.64686 | 36233 ft | 463 kts | 236° |
| 2026-05-04 17:47 | 58.40980 | -39.74084 | 36231 ft | 462 kts | 236° |
| 2026-05-04 17:48 | 58.36832 | -39.83470 | 36231 ft | 463 kts | 236° |
| 2026-05-04 17:48 | 58.32699 | -39.92783 | 36228 ft | 463 kts | 236° |
| 2026-05-04 17:49 | 58.28539 | -40.02122 | 36224 ft | 462 kts | 236° |
| 2026-05-04 17:49 | 58.24375 | -40.11430 | 36228 ft | 463 kts | 236° |
| 2026-05-04 17:50 | 58.20196 | -40.20736 | 36226 ft | 463 kts | 236° |
| 2026-05-04 17:50 | 58.16035 | -40.29966 | 36223 ft | 461 kts | 235° |
| 2026-05-04 17:51 | 58.11849 | -40.39214 | 36222 ft | 462 kts | 235° |
| 2026-05-04 17:51 | 58.07644 | -40.48467 | 36220 ft | 463 kts | 235° |
| 2026-05-04 17:52 | 58.03471 | -40.57613 | 36220 ft | 461 kts | 235° |
| 2026-05-04 17:52 | 57.99269 | -40.66790 | 36225 ft | 462 kts | 235° |
| 2026-05-04 17:53 | 57.95060 | -40.75942 | 36218 ft | 462 kts | 235° |
| 2026-05-04 17:53 | 57.90884 | -40.84989 | 36210 ft | 459 kts | 235° |
| 2026-05-04 17:54 | 57.86692 | -40.94036 | 36211 ft | 459 kts | 235° |
| 2026-05-04 17:54 | 57.82484 | -41.03081 | 36209 ft | 459 kts | 234° |
| 2026-05-04 17:55 | 57.78285 | -41.12074 | 36205 ft | 456 kts | 234° |
| 2026-05-04 17:55 | 57.74120 | -41.20960 | 36208 ft | 455 kts | 234° |
| 2026-05-04 17:56 | 57.69935 | -41.29852 | 36204 ft | 455 kts | 234° |
| 2026-05-04 17:56 | 57.65759 | -41.38695 | 36199 ft | 452 kts | 234° |
| 2026-05-04 17:57 | 57.61599 | -41.47470 | 36196 ft | 451 kts | 234° |
| 2026-05-04 17:57 | 57.57424 | -41.56241 | 36197 ft | 451 kts | 234° |
| 2026-05-04 17:58 | 57.53292 | -41.64893 | 36192 ft | 448 kts | 234° |
| 2026-05-04 17:58 | 57.49146 | -41.73541 | 36185 ft | 447 kts | 234° |
| 2026-05-04 17:59 | 57.44995 | -41.82165 | 36186 ft | 447 kts | 234° |
| 2026-05-04 18:00 | 57.38793 | -41.94996 | 36179 ft | 443 kts | 233° |
| 2026-05-04 18:00 | 57.34690 | -42.03444 | 36179 ft | 443 kts | 233° |
| 2026-05-04 18:01 | 57.30554 | -42.11931 | 36168 ft | 442 kts | 233° |
| 2026-05-04 18:01 | 57.26464 | -42.20291 | 36170 ft | 440 kts | 233° |
| 2026-05-04 18:02 | 57.20271 | -42.32895 | 36166 ft | 441 kts | 232° |
| 2026-05-04 18:02 | 57.16145 | -42.41253 | 36160 ft | 439 kts | 232° |
| 2026-05-04 18:03 | 57.12036 | -42.49551 | 36155 ft | 439 kts | 232° |
| 2026-05-04 18:03 | 57.07934 | -42.57801 | 36165 ft | 439 kts | 232° |
| 2026-05-04 18:04 | 57.03808 | -42.66073 | 36154 ft | 438 kts | 232° |
| 2026-05-04 18:05 | 56.97614 | -42.78434 | 36151 ft | 439 kts | 232° |
| 2026-05-04 18:05 | 56.93498 | -42.86612 | 36143 ft | 438 kts | 231° |
| 2026-05-04 18:06 | 56.87284 | -42.98906 | 36134 ft | 438 kts | 231° |
| 2026-05-04 18:06 | 56.83128 | -43.07090 | 36130 ft | 439 kts | 231° |
| 2026-05-04 18:07 | 56.78999 | -43.15196 | 36126 ft | 437 kts | 231° |
| 2026-05-04 18:07 | 56.74844 | -43.23323 | 36115 ft | 438 kts | 230° |
| 2026-05-04 18:08 | 56.70676 | -43.31446 | 36118 ft | 439 kts | 230° |
| 2026-05-04 18:08 | 56.66530 | -43.39500 | 36103 ft | 438 kts | 230° |
| 2026-05-04 18:09 | 56.58190 | -43.55616 | 36106 ft | 439 kts | 230° |
| 2026-05-04 18:10 | 56.54000 | -43.63670 | 36096 ft | 437 kts | 230° |
| 2026-05-04 18:10 | 56.49815 | -43.71688 | 36095 ft | 437 kts | 230° |
| 2026-05-04 18:11 | 56.46335 | -43.78333 | 36087 ft | 438 kts | 229° |
| 2026-05-04 18:11 | 56.42124 | -43.86349 | 36086 ft | 438 kts | 229° |
| 2026-05-04 18:12 | 56.37927 | -43.94312 | 36079 ft | 437 kts | 229° |
| 2026-05-04 18:12 | 56.33751 | -44.02208 | 36073 ft | 438 kts | 229° |
| 2026-05-04 18:13 | 56.29538 | -44.10146 | 36067 ft | 437 kts | 229° |
| 2026-05-04 18:14 | 56.23226 | -44.21991 | 36061 ft | 437 kts | 229° |
| 2026-05-04 18:14 | 56.19005 | -44.29877 | 36054 ft | 437 kts | 229° |
| 2026-05-04 18:15 | 56.10557 | -44.45580 | 36043 ft | 436 kts | 228° |
| 2026-05-04 18:16 | 56.06364 | -44.53336 | 36041 ft | 437 kts | 228° |
| 2026-05-04 18:16 | 56.02125 | -44.61149 | 36035 ft | 437 kts | 228° |
| 2026-05-04 18:17 | 55.95773 | -44.72811 | 36023 ft | 436 kts | 227° |
| 2026-05-04 18:18 | 55.89433 | -44.84390 | 36016 ft | 437 kts | 227° |
| 2026-05-04 18:18 | 55.85185 | -44.92117 | 36009 ft | 435 kts | 227° |
| 2026-05-04 18:19 | 55.78809 | -45.03667 | 36000 ft | 437 kts | 227° |
| 2026-05-04 18:19 | 55.74541 | -45.11365 | 35989 ft | 435 kts | 226° |
| 2026-05-04 18:20 | 55.70290 | -45.19010 | 35984 ft | 435 kts | 226° |
| 2026-05-04 18:20 | 55.66053 | -45.26601 | 35984 ft | 436 kts | 226° |
| 2026-05-04 18:21 | 55.61795 | -45.34209 | 35973 ft | 434 kts | 226° |
| 2026-05-04 18:21 | 55.57543 | -45.41777 | 35969 ft | 434 kts | 226° |
| 2026-05-04 18:22 | 55.53281 | -45.49340 | 35960 ft | 434 kts | 225° |
| 2026-05-04 18:22 | 55.49014 | -45.56888 | 35953 ft | 433 kts | 225° |
| 2026-05-04 18:23 | 55.44786 | -45.64344 | 35949 ft | 433 kts | 225° |
| 2026-05-04 18:23 | 55.40510 | -45.71857 | 35940 ft | 433 kts | 225° |
| 2026-05-04 18:24 | 55.36248 | -45.79323 | 35933 ft | 432 kts | 225° |
| 2026-05-04 18:24 | 55.31981 | -45.86773 | 35929 ft | 433 kts | 225° |
| 2026-05-04 18:25 | 55.27727 | -45.94177 | 35920 ft | 432 kts | 224° |
| 2026-05-04 18:25 | 55.23454 | -46.01591 | 35919 ft | 432 kts | 224° |
| 2026-05-04 18:26 | 55.19162 | -46.09013 | 35907 ft | 433 kts | 224° |
| 2026-05-04 18:26 | 55.14872 | -46.16410 | 35902 ft | 432 kts | 224° |
| 2026-05-04 18:27 | 55.10594 | -46.23761 | 35902 ft | 431 kts | 224° |
| 2026-05-04 18:27 | 55.06305 | -46.31106 | 35889 ft | 432 kts | 223° |
| 2026-05-04 18:28 | 55.02038 | -46.38394 | 35882 ft | 432 kts | 223° |
| 2026-05-04 18:28 | 54.97739 | -46.45711 | 35871 ft | 431 kts | 223° |
| 2026-05-04 18:29 | 54.93438 | -46.53010 | 35873 ft | 431 kts | 223° |
| 2026-05-04 18:29 | 54.89126 | -46.60302 | 35864 ft | 431 kts | 223° |
| 2026-05-04 18:30 | 54.82705 | -46.71120 | 35850 ft | 430 kts | 222° |
| 2026-05-04 18:31 | 54.78390 | -46.78361 | 35843 ft | 432 kts | 222° |
| 2026-05-04 18:31 | 54.74070 | -46.85590 | 35837 ft | 431 kts | 221° |
| 2026-05-04 18:32 | 54.69755 | -46.92786 | 35834 ft | 431 kts | 221° |
| 2026-05-04 18:32 | 54.65423 | -46.99988 | 35823 ft | 432 kts | 221° |
| 2026-05-04 18:33 | 54.61113 | -47.07132 | 35818 ft | 430 kts | 221° |
| 2026-05-04 18:33 | 54.56793 | -47.14269 | 35813 ft | 430 kts | 221° |
| 2026-05-04 18:34 | 54.52492 | -47.21355 | 35809 ft | 431 kts | 221° |
| 2026-05-04 18:34 | 54.48166 | -47.28459 | 35806 ft | 429 kts | 220° |
| 2026-05-04 18:35 | 54.43848 | -47.35527 | 35788 ft | 428 kts | 220° |
| 2026-05-04 18:35 | 54.39525 | -47.42584 | 35780 ft | 429 kts | 220° |
| 2026-05-04 18:36 | 54.35203 | -47.49616 | 35774 ft | 427 kts | 220° |
| 2026-05-04 18:36 | 54.30917 | -47.56568 | 35765 ft | 426 kts | 219° |
| 2026-05-04 18:37 | 54.26603 | -47.63546 | 35763 ft | 427 kts | 219° |
| 2026-05-04 18:37 | 54.22285 | -47.70508 | 35755 ft | 425 kts | 219° |
| 2026-05-04 18:38 | 54.17971 | -47.77442 | 35746 ft | 424 kts | 219° |
| 2026-05-04 18:38 | 54.13654 | -47.84361 | 35745 ft | 426 kts | 219° |
| 2026-05-04 18:39 | 54.09334 | -47.91266 | 35733 ft | 426 kts | 218° |
| 2026-05-04 18:39 | 54.05027 | -47.98126 | 35723 ft | 425 kts | 218° |
| 2026-05-04 18:40 | 54.00686 | -48.05022 | 35724 ft | 427 kts | 218° |
| 2026-05-04 18:40 | 53.96334 | -48.11913 | 35715 ft | 426 kts | 218° |
| 2026-05-04 18:41 | 53.91991 | -48.18771 | 35709 ft | 426 kts | 217° |
| 2026-05-04 18:41 | 53.87635 | -48.25628 | 35704 ft | 429 kts | 217° |
| 2026-05-04 18:42 | 53.83286 | -48.32456 | 35696 ft | 428 kts | 217° |
| 2026-05-04 18:42 | 53.78917 | -48.39292 | 35698 ft | 429 kts | 217° |
| 2026-05-04 18:43 | 53.74515 | -48.46160 | 35682 ft | 430 kts | 217° |
| 2026-05-04 18:43 | 53.70102 | -48.53027 | 35680 ft | 430 kts | 217° |
| 2026-05-04 18:44 | 53.65720 | -48.59822 | 35680 ft | 430 kts | 216° |
| 2026-05-04 18:44 | 53.61300 | -48.66656 | 35677 ft | 432 kts | 216° |
| 2026-05-04 18:45 | 53.56866 | -48.73493 | 35659 ft | 431 kts | 216° |
| 2026-05-04 18:45 | 53.52434 | -48.80304 | 35664 ft | 432 kts | 216° |
| 2026-05-04 18:46 | 53.47982 | -48.87128 | 35665 ft | 434 kts | 216° |
| 2026-05-04 18:46 | 53.43522 | -48.93946 | 35666 ft | 433 kts | 216° |